Amber, Oklahoma
Current Conditions -  °F | °C
As of 1:55 PM on Thursday 30 Oct 2014 (Local Time) from KRQO Reporting Station
Haze Haze  
Wind Chill: 72°   Ceiling: 700
Heat Index: 72°   Visibility: 1mi
Dew Point: 36°   Wind: 15mph
Humidity: 27%   Direction: 10°N
Pressure: 30.15"   Gusts: NA
Location:  35.16°N, 97.88°W
Report Text: KRQO 301855Z AUTO 01013KT 1SM HZ VV007 22/02 A3015 RMK AO2
Loading
Personal Weather Stations






























Interactive Weather Map
Tropical Storm Tracking
New forecast layout! Learn more

10-Day Weather Forecast

Advertisements
Track Severe Weather on mobile